Sunday, October 22, 2017, 5:12 PM EDT
Back to Local

K12N, Aeroflex-andover Airport

Location: Newton, NJ, United States Lat: 41.017
Local Time: 5:12 PM EDT (21:12 GMT) Lon: -74.733
Time Zone: US/Eastern Elev: 583 ft

Show me the last for .
Show Coded

Time T Td Feel RH Dir Speed Gust Alt SLP Vis Weather Sky Remarks
2017-10-22 16:54 73 46 - 38 Variable 3 - 30.34 30.34 0 None
2017-10-22 15:54 74 45 - 35 220° 9 - 30.35 30.35 0 None
2017-10-22 14:54 76 43 - 30 190° 7 - 30.35 30.34 0 None
2017-10-22 13:54 75 42 - 30 220° 8 - 30.36 30.35 0 6-hr Min Temp (2pm): 43.0°F
6-hr Max Temp (2pm): 75.0°F
2017-10-22 12:54 74 45 - 35 Variable 3 - 30.38 30.38 0 None
2017-10-22 11:54 72 47 75 40 Variable 6 - 30.39 30.39 0 None
2017-10-22 10:54 67 53 - 61 - Calm - 30.40 30.40 0 None
2017-10-22 09:54 56 52 - 86 - Calm - 30.41 30.42 0 None
2017-10-22 08:54 48 48 - 100 - Calm - 30.42 30.43 0 None
2017-10-22 07:54 43 42 - 96 - Calm - 30.42 30.43 0 6-hr Min Temp (8am): 41.0°F
6-hr Max Temp (8am): 44.1°F
2017-10-22 06:54 42 41 - 95 - Calm - 30.40 30.41 0 None
2017-10-22 05:54 42 41 - 95 - Calm - 30.39 30.39 0 None
2017-10-22 04:54 42 41 - 95 - Calm - 30.37 30.37 0 None
2017-10-22 03:54 42 42 - 100 - Calm - 30.36 30.36 0 None
2017-10-22 02:54 43 42 - 96 - Calm - 30.37 30.37 0 None
2017-10-22 01:54 44 43 - 95 - Calm - 30.36 30.36 0 6-hr Min Temp (2am): 44.1°F
6-hr Max Temp (2am): 53.1°F
2017-10-22 00:54 45 43 - 92 - Calm - 30.37 30.37 0 24-hr Min Temp (1am): 39.9°F
24-hr Max Temp (1am): 75.9°F
2017-10-21 23:54 46 45 - 95 - Calm - 30.37 30.37 0 None
2017-10-21 22:54 47 46 - 96 - Calm - 30.37 30.37 0 None
2017-10-21 21:54 48 47 - 96 - Calm - 30.37 30.37 0 None
2017-10-21 20:54 51 48 - 89 - Calm - 30.36 30.37 0 None
2017-10-21 19:54 53 47 - 79 - Calm - 30.35 30.37 0 6-hr Min Temp (8pm): 53.1°F
6-hr Max Temp (8pm): 75.9°F
2017-10-21 18:54 56 49 - 77 - Calm - 30.34 30.35 0 None
2017-10-21 17:54 63 48 - 58 - Calm - 30.33 30.33 0 None

Support USWX by starting your Amazon purchase here.